Inverness Airport

EGPE · Scotland, United Kingdom

METAR history EGPE · Inverness Airport

Below you see METARs of the last few days. Select a year to browse through older METARs, from the year 2007 onwards.

December 6, 2022

Time Code Weather Temp. Visibility Ceiling Wind METAR/SPECI
03:20
V
5 °C 10 km+ 4,700 ft 340° 340° 10 kt METAR EGPE 060320Z 34010KT 9999 SCT039 BKN047 05/02 Q1030
02:50
V
5 °C 10 km+ - 340° 340° 8 kt METAR EGPE 060250Z 34008KT 9999 SCT039 05/02 Q1031
02:20
V
5 °C 10 km+ 3,900 ft 340° 340° 10 kt METAR EGPE 060220Z 34010KT 9999 BKN039 05/02 Q1031
01:50
V
5 °C 10 km+ 3,900 ft 330° 330° 6 kt METAR EGPE 060150Z AUTO 33006KT 9999 BKN039/// 05/02 Q1031
01:20
V
5 °C 10 km+ 4,800 ft 340° 340° 10 kt METAR EGPE 060120Z AUTO 34010KT 9999 FEW029/// BKN048/// 05/02 Q1031
00:50
V
5 °C 10 km+ 4,800 ft 330° 330° 7 kt METAR EGPE 060050Z AUTO 33007KT 9999 OVC048/// 05/03 Q1031
00:20
V
4 °C 10 km+ 4,100 ft 260° 260° 3 kt METAR EGPE 060020Z AUTO 26003KT 220V360 9999 FEW021/// SCT028/// OVC041/// 04/03 Q1032

December 5, 2022

Time Code Weather Temp. Visibility Ceiling Wind METAR/SPECI
23:50
M
4 °C 10 km+ 2,900 ft 210° 210° 1 kt METAR EGPE 052350Z AUTO 21001KT 9999 FEW009/// SCT022/// BKN029/// 04/03 Q1032
23:20
I
5 °C 10 km+ 800 ft 290° 290° 4 kt METAR EGPE 052320Z AUTO 29004KT 9999 -RA BKN008/// OVC016/// 05/03 Q1032
22:50
I
4 °C 5 km 900 ft 270° 270° 3 kt METAR EGPE 052250Z AUTO 27003KT 220V310 5000 -DZ SCT005/// BKN009/// OVC022/// 04/03 Q1032
22:20
M
4 °C 10 km+ 1,300 ft 230° 230° 3 kt METAR EGPE 052220Z AUTO 23003KT 210V270 9999 BKN013/// OVC018/// 04/02 Q1032
21:50
M
3 °C 10 km+ 2,600 ft 230° 230° 5 kt METAR EGPE 052150Z AUTO 23005KT 9999 SCT020/// OVC026/// 03/02 Q1032
21:20
V
3 °C 10 km+ 3,400 ft 230° 230° 5 kt METAR EGPE 052120Z 23005KT 9999 FEW016 BKN034 03/02 Q1032
20:50
V
4 °C 10 km+ 3,700 ft 240° 240° 4 kt METAR EGPE 052050Z 24004KT 220V290 9999 FEW016 BKN037 04/02 Q1032
20:20
V
4 °C 10 km+ 3,200 ft 300° 300° 4 kt METAR EGPE 052020Z 30004KT 9999 FEW006 BKN032 04/02 Q1033
19:50
V
4 °C 10 km+ 3,500 ft Var Var 2 kt METAR EGPE 051950Z VRB02KT 9999 FEW006 BKN035 04/02 Q1033
19:20
V
2 °C 10 km+ 3,400 ft 220° 220° 4 kt METAR EGPE 051920Z 22004KT 9999 FEW015 BKN034 02/01 Q1033
18:50
V
3 °C 10 km+ 3,700 ft 210° 210° 3 kt METAR EGPE 051850Z 21003KT 9999 FEW015 BKN037 03/02 Q1033
18:20
V
3 °C 10 km+ 3,900 ft 230° 230° 5 kt METAR EGPE 051820Z 23005KT 9999 FEW015 BKN039 03/02 Q1033
17:50
V
3 °C 10 km+ 3,900 ft 230° 230° 3 kt METAR EGPE 051750Z 23003KT 9999 FEW015 BKN039 03/02 Q1033
17:20
V
3 °C 10 km+ 4,000 ft 230° 230° 2 kt METAR EGPE 051720Z 23002KT 9999 FEW015 BKN040 03/02 Q1033
16:50
V
3 °C 10 km+ 3,100 ft 230° 230° 4 kt METAR EGPE 051650Z 23004KT 9999 FEW015 BKN031 03/02 Q1033
16:20
V
3 °C 10 km+ 3,000 ft 230° 230° 3 kt METAR EGPE 051620Z 23003KT 9999 FEW015 BKN030 03/02 Q1033
15:50
M
3 °C 10 km+ 2,900 ft 210° 210° 2 kt METAR EGPE 051550Z 21002KT 9999 FEW015 BKN029 03/02 Q1033
15:20
M
3 °C 10 km+ 2,600 ft 220° 220° 3 kt METAR EGPE 051520Z 22003KT 9999 FEW015 BKN026 03/02 Q1033
14:50
M
3 °C 10 km+ 2,900 ft 210° 210° 3 kt METAR EGPE 051450Z 21003KT 9999 FEW015 BKN029 03/03 Q1033
14:20
V
3 °C 10 km+ - 230° 230° 4 kt METAR EGPE 051420Z 23004KT 9999 FEW010 SCT027 03/02 Q1033
13:50
V
3 °C 10 km+ - 210° 210° 4 kt METAR EGPE 051350Z 21004KT 9999 FEW010 SCT027 03/02 Q1033
13:20
V
3 °C 10 km+ - 230° 230° 3 kt METAR EGPE 051320Z 23003KT 9999 FEW010 SCT026 03/03 Q1033
12:50
V
3 °C 10 km+ - 220° 220° 3 kt METAR EGPE 051250Z 22003KT 9999 FEW006 SCT030 03/03 Q1034
12:20
V
3 °C 10 km+ - 220° 220° 3 kt METAR EGPE 051220Z 22003KT 9999 FEW004 SCT037 03/03 Q1034
11:50
V
2 °C 10 km+ - 210° 210° 3 kt METAR EGPE 051150Z 21003KT 9999 FEW004 SCT032 02/02 Q1034
11:20
V
1 °C 10 km+ - 220° 220° 4 kt METAR EGPE 051120Z 22004KT 9999 FEW004 SCT032 01/01 Q1034
10:50
V
0 °C 10 km+ - 210° 210° 3 kt METAR EGPE 051050Z 21003KT 9999 FEW004 SCT033 00/M00 Q1034
10:20
V
0 °C 10 km+ - 220° 220° 2 kt METAR EGPE 051020Z 22002KT 9999 FEW004 M00/M01 Q1034
09:50
V
0 °C 10 km+ - Var 000° 0 kt METAR EGPE 050950Z 00000KT 9999 FEW004 M00/M01 Q1034
09:20
V
0 °C 10 km+ - 200° 200° 1 kt METAR EGPE 050920Z 20001KT 9999 FEW003 SCT042 00/M00 Q1034
08:50
V
0 °C 10 km+ 3,800 ft 200° 200° 1 kt METAR EGPE 050850Z 20001KT 9999 FEW003 BKN038 00/M00 Q1034
08:20
V
0 °C 10 km+ 3,300 ft Var 000° 0 kt METAR EGPE 050820Z 00000KT 9999 -RA FEW006 SCT016 BKN033 00/00 Q1034
07:50
V
0 °C 10 km+ 3,900 ft 190° 190° 2 kt METAR EGPE 050750Z 19002KT 9999 FEW008 SCT021 BKN039 00/M00 Q1034
07:20
V
0 °C 10 km+ 3,900 ft 200° 200° 2 kt METAR EGPE 050720Z 20002KT 9999 FEW008 SCT021 BKN039 M00/M01 Q1033
06:50
M
0 °C 10 km+ 2,100 ft Var Var 1 kt METAR EGPE 050650Z VRB01KT 9999 8000N -RA FEW008 BKN021 BKN030 M00/M01 Q1033
06:20
V
-1 °C 10 km+ 3,200 ft Var Var 2 kt METAR EGPE 050620Z VRB02KT 9999 FEW008 SCT024 BKN032 M01/M01 Q1033
05:50
M
-1 °C 10 km+ 2,100 ft 150° 150° 2 kt METAR EGPE 050550Z AUTO 15002KT 9999 BKN021/// OVC027/// M01/M01 Q1033
05:20
M
-2 °C 10 km+ 2,900 ft Var Var 1 kt METAR EGPE 050520Z AUTO VRB01KT 9999 SCT023/// BKN029/// M02/M02 Q1033 REFZRA
04:50
V
-3 °C 10 km+ 3,200 ft Var 000° 0 kt METAR EGPE 050450Z AUTO 00000KT 9999 SCT026/// BKN032/// BKN044/// M03/M04 Q1033
04:20
V
-3 °C 10 km+ 3,900 ft Var 000° 0 kt METAR EGPE 050420Z AUTO 00000KT 9999 SCT028/// BKN039/// M03/M04 Q1033
03:50
M
-4 °C 7 km - Var 000° 0 kt METAR EGPE 050350Z AUTO 00000KT 7000 FEW046/// M04/M04 Q1033
03:20
V
-4 °C 10 km+ - Var 000° 0 kt METAR EGPE 050320Z AUTO 00000KT 9999 FEW036/// M04/M04 Q1032
02:50
V
-3 °C 10 km+ - 180° 180° 2 kt METAR EGPE 050250Z AUTO 18002KT 9999 SCT033/// SCT041/// M03/M04 Q1032
02:20
V
-3 °C 10 km+ - Var 000° 0 kt METAR EGPE 050220Z AUTO 00000KT 9999 FEW029/// SCT038/// M03/M03 Q1032 REFZRA
01:50
M
-2 °C 7 km 2,700 ft 210° 210° 2 kt METAR EGPE 050150Z AUTO 21002KT 7000 OVC027/// M02/M03 Q1032 REFZRA
01:20
M
-4 °C 10 km+ 2,900 ft Var 000° 0 kt METAR EGPE 050120Z AUTO 00000KT 9999 BKN029/// M04/M04 Q1032
00:50
V
-4 °C 10 km+ - Var 000° 0 kt METAR EGPE 050050Z AUTO 00000KT 9999 SCT034/// M04/M04 Q1032
00:20
V
-4 °C 10 km+ - Var 000° 0 kt METAR EGPE 050020Z AUTO 00000KT 9999 SCT031/// SCT039/// M04/M04 Q1032

December 4, 2022

Time Code Weather Temp. Visibility Ceiling Wind METAR/SPECI
23:50
V
-3 °C 10 km+ - Var 000° 0 kt METAR EGPE 042350Z AUTO 00000KT 9999 FEW028/// M03/M04 Q1032
23:20
V
-4 °C 10 km+ - 160° 160° 1 kt METAR EGPE 042320Z AUTO 16001KT 9999 NCD M04/M05 Q1032
22:50
V
-4 °C 10 km+ - Var Var 1 kt METAR EGPE 042250Z AUTO VRB01KT 9999 NCD M04/M04 Q1032
22:20
V
-4 °C 10 km+ - 060° 060° 1 kt METAR EGPE 042220Z AUTO 06001KT 9999 NCD M04/M04 Q1031
21:50
M
-4 °C 7 km - Var 000° 0 kt METAR EGPE 042150Z AUTO 00000KT 7000 NCD M04/M04 Q1031
21:20
V
-3 °C 10 km+ - Var 000° 0 kt METAR EGPE 042120Z 00000KT 9999 MIFG NSC M03/M04 Q1031
20:50
V
-2 °C 10 km+ - Var 000° 0 kt METAR EGPE 042050Z 00000KT 9999 MIFG NSC M02/M03 Q1031
20:20
V
-2 °C 10 km+ - Var 000° 0 kt METAR EGPE 042020Z 00000KT 9999 MIFG NSC M02/M03 Q1031
19:50
V
-2 °C 10 km+ - 160° 160° 1 kt METAR EGPE 041950Z 16001KT CAVOK M02/M02 Q1031
19:20
V
-1 °C 10 km+ - 120° 120° 2 kt METAR EGPE 041920Z 12002KT CAVOK M01/M01 Q1031
18:50
V
-1 °C 10 km+ - 180° 180° 1 kt METAR EGPE 041850Z 18001KT CAVOK M01/M02 Q1031
18:20
V
-1 °C 10 km+ - 050° 050° 3 kt METAR EGPE 041820Z 05003KT 040V100 9999 FEW020 M01/M01 Q1030
17:50
V
0 °C 10 km+ - 050° 050° 4 kt METAR EGPE 041750Z 05004KT 9999 FEW020 M00/M01 Q1030
17:20
V
1 °C 10 km+ - 070° 070° 2 kt METAR EGPE 041720Z 07002KT 9999 FEW020 01/00 Q1030
16:50
V
1 °C 10 km+ - 100° 100° 1 kt METAR EGPE 041650Z 10001KT 9999 FEW020 01/01 Q1029
16:20
V
2 °C 10 km+ - 090° 090° 2 kt METAR EGPE 041620Z 09002KT 9999 FEW020 02/01 Q1029
15:50
V
2 °C 10 km+ - 040° 040° 1 kt METAR EGPE 041550Z 04001KT 9999 FEW020 02/01 Q1029
15:20
V
2 °C 10 km+ - 060° 060° 1 kt METAR EGPE 041520Z 06001KT 9999 FEW020 02/01 Q1029
14:50
V
3 °C 10 km+ - 100° 100° 1 kt METAR EGPE 041450Z 10001KT 9999 FEW020 03/02 Q1029
14:20
V
4 °C 10 km+ - Var Var 1 kt METAR EGPE 041420Z VRB01KT 9999 FEW020 04/02 Q1029
13:50
V
5 °C 10 km+ - Var Var 1 kt METAR EGPE 041350Z VRB01KT 9999 FEW015 05/02 Q1029
13:20
V
4 °C 10 km+ - 360° 360° 1 kt METAR EGPE 041320Z 36001KT 9999 FEW015 04/02 Q1029
12:50
V
4 °C 10 km+ - Var 000° 0 kt METAR EGPE 041250Z 00000KT 9999 FEW015 04/02 Q1029
12:20
V
3 °C 10 km+ - 020° 020° 2 kt METAR EGPE 041220Z 02002KT 9999 FEW015 03/02 Q1029
11:50
V
4 °C 10 km+ - Var 000° 0 kt METAR EGPE 041150Z 00000KT 9999 FEW035 04/02 Q1029
11:20
V
2 °C 10 km+ - 020° 020° 1 kt METAR EGPE 041120Z 02001KT 9999 FEW030 02/01 Q1029
10:50
V
1 °C 10 km+ - Var 000° 0 kt METAR EGPE 041050Z 00000KT 9999 FEW010 SCT034 01/00 Q1029
10:20
V
-2 °C 10 km+ - Var 000° 0 kt METAR EGPE 041020Z 00000KT 9999 FEW010 SCT034 M02/M03 Q1029
09:50
V
-2 °C 10 km+ - Var 000° 0 kt METAR EGPE 040950Z 00000KT 9999 FEW010 SCT032 M02/M03 Q1029
09:20
V
-3 °C 10 km+ - Var 000° 0 kt METAR EGPE 040920Z 00000KT 9999 FEW010 SCT030 M03/M04 Q1029
08:50
V
-4 °C 10 km+ - Var 000° 0 kt METAR EGPE 040850Z 00000KT 9999 FEW010 M04/M04 Q1029
08:20
V
-4 °C 10 km+ - Var 000° 0 kt METAR EGPE 040820Z 00000KT 9999 FEW010 M04/M05 Q1029
07:50
V
-4 °C 10 km+ - 220° 220° 1 kt METAR EGPE 040750Z 22001KT 9999 FEW010 M04/M05 Q1029
07:20
V
-4 °C 10 km+ - 080° 080° 3 kt METAR EGPE 040720Z 08003KT 9999 FEW010 M04/M05 Q1028
06:50
V
-3 °C 10 km+ - Var 000° 0 kt METAR EGPE 040650Z 00000KT 9999 FEW010 M03/M04 Q1028
06:20
V
-3 °C 10 km+ - 150° 150° 1 kt METAR EGPE 040620Z 15001KT 9999 FEW010 M03/M03 Q1028
05:50
V
-4 °C 10 km+ - Var 000° 0 kt METAR EGPE 040550Z AUTO 00000KT 9999 NCD M04/M04 Q1028
05:20
V
-2 °C 10 km+ - 090° 090° 1 kt METAR EGPE 040520Z AUTO 09001KT 9999 NCD M02/M03 Q1028
04:50
V
-2 °C 10 km+ - 070° 070° 3 kt METAR EGPE 040450Z AUTO 07003KT 9999 NCD M02/M03 Q1028
04:20
V
-2 °C 10 km+ - Var 000° 0 kt METAR EGPE 040420Z AUTO 00000KT 9999 NCD M02/M02 Q1028
03:50
V
-1 °C 10 km+ - 070° 070° 3 kt METAR EGPE 040350Z AUTO 07003KT 9999 NCD M01/M02 Q1027
03:20
V
-2 °C 10 km+ - 060° 060° 2 kt METAR EGPE 040320Z AUTO 06002KT 9999 NCD M02/M03 Q1027
02:50
V
-1 °C 10 km+ - 070° 070° 3 kt METAR EGPE 040250Z AUTO 07003KT 9999 NCD M01/M02 Q1027
02:20
V
0 °C 10 km+ - 060° 060° 3 kt METAR EGPE 040220Z AUTO 06003KT 9999 NCD 00/M01 Q1027
01:50
V
0 °C 10 km+ - 060° 060° 4 kt METAR EGPE 040150Z AUTO 06004KT 9999 NCD 00/M01 Q1027
01:20
V
0 °C 10 km+ - Var 000° 0 kt METAR EGPE 040120Z AUTO 00000KT 9999 NCD 00/M01 Q1027
00:50
V
0 °C 10 km+ - 130° 130° 3 kt METAR EGPE 040050Z AUTO 13003KT 110V170 9999 NCD 00/M01 Q1027
00:20
V
0 °C 10 km+ - 090° 090° 4 kt METAR EGPE 040020Z AUTO 09004KT 9999 NCD 00/M01 Q1027

December 3, 2022

Time Code Weather Temp. Visibility Ceiling Wind METAR/SPECI
23:50
V
1 °C 10 km+ - 080° 080° 4 kt METAR EGPE 032350Z AUTO 08004KT 9999 NCD 01/M00 Q1027
23:20
V
1 °C 10 km+ - 100° 100° 3 kt METAR EGPE 032320Z AUTO 10003KT 9999 NCD 01/M00 Q1027
22:50
V
2 °C 10 km+ - 090° 090° 3 kt METAR EGPE 032250Z AUTO 09003KT 9999 NCD 02/00 Q1027
22:20
V
2 °C 10 km+ - 050° 050° 3 kt METAR EGPE 032220Z AUTO 05003KT 9999 NCD 02/M00 Q1027
21:50
V
1 °C 10 km+ - 070° 070° 2 kt METAR EGPE 032150Z AUTO 07002KT 9999 NCD 01/00 Q1026
21:20
V
3 °C 10 km+ - 080° 080° 2 kt METAR EGPE 032120Z AUTO 08002KT 9999 NCD 03/01 Q1026
20:50
V
5 °C 10 km+ - 110° 110° 5 kt METAR EGPE 032050Z 11005KT 9999 FEW040 05/02 Q1026
20:20
V
4 °C 10 km+ - 080° 080° 4 kt METAR EGPE 032020Z 08004KT 9999 FEW037 04/02 Q1026
19:50
V
4 °C 10 km+ - 090° 090° 3 kt METAR EGPE 031950Z 09003KT 9999 SCT040 04/02 Q1026
19:20
V
5 °C 10 km+ 4,000 ft 100° 100° 4 kt METAR EGPE 031920Z 10004KT 9999 BKN040 05/02 Q1026
18:50
V
5 °C 10 km+ 4,500 ft 110° 110° 3 kt METAR EGPE 031850Z 11003KT 9999 BKN045 05/02 Q1026
18:20
V
5 °C 10 km+ 4,000 ft Var Var 2 kt METAR EGPE 031820Z VRB02KT 9999 FEW029 BKN040 05/02 Q1026
17:50
V
6 °C 10 km+ 4,000 ft Var Var 1 kt METAR EGPE 031750Z VRB01KT 9999 FEW029 BKN040 06/02 Q1026
17:20
V
7 °C 10 km+ 4,200 ft 180° 180° 4 kt METAR EGPE 031720Z 18004KT 9999 FEW025 BKN042 07/02 Q1026
16:50
V
7 °C 10 km+ 4,500 ft 170° 170° 4 kt METAR EGPE 031650Z 17004KT 9999 FEW025 BKN045 07/03 Q1025
16:20
V
6 °C 10 km+ 4,500 ft 180° 180° 2 kt METAR EGPE 031620Z 18002KT 9999 FEW025 BKN045 06/03 Q1025
15:50
V
7 °C 10 km+ 3,700 ft 180° 180° 4 kt METAR EGPE 031550Z 18004KT 9999 FEW025 BKN037 07/02 Q1025
15:20
V
7 °C 10 km+ 4,300 ft 190° 190° 3 kt METAR EGPE 031520Z 19003KT 170V230 9999 FEW025 BKN043 07/02 Q1025
14:50
V
7 °C 10 km+ 4,300 ft 120° 120° 3 kt METAR EGPE 031450Z 12003KT 080V140 9999 FEW020 BKN043 07/03 Q1025
14:20
V
8 °C 10 km+ 4,500 ft 200° 200° 3 kt METAR EGPE 031420Z 20003KT 180V240 9999 FEW020 BKN045 08/03 Q1025
13:50
V
8 °C 10 km+ 4,500 ft 210° 210° 3 kt METAR EGPE 031350Z 21003KT 9999 FEW020 BKN045 08/03 Q1026
13:20
V
8 °C 10 km+ 3,300 ft 180° 180° 5 kt METAR EGPE 031320Z 18005KT 9999 -SHRA FEW020 BKN033 08/03 Q1026
12:50
V
8 °C 10 km+ 3,300 ft Var Var 2 kt METAR EGPE 031250Z VRB02KT 9999 -SHRA FEW020 BKN033 08/04 Q1026
12:20
V
8 °C 10 km+ 3,300 ft 230° 230° 4 kt METAR EGPE 031220Z 23004KT 9999 -SHRA FEW020 BKN033 08/04 Q1026
11:50
V
8 °C 10 km+ 3,300 ft 220° 220° 4 kt METAR EGPE 031150Z 22004KT 9999 -SHRA FEW015 BKN033 08/04 Q1027
11:20
V
8 °C 10 km+ 3,300 ft Var Var 1 kt METAR EGPE 031120Z VRB01KT 9999 -SHRA FEW015 BKN033 08/04 Q1027
10:50
V
7 °C 10 km+ 3,400 ft Var Var 1 kt METAR EGPE 031050Z VRB01KT 9999 -SHRA FEW015 BKN034 07/05 Q1027
10:20
V
7 °C 10 km+ 3,300 ft Var Var 2 kt METAR EGPE 031020Z VRB02KT 9999 -SHRA FEW015 BKN033 07/04 Q1027
09:50
V
8 °C 10 km+ 3,200 ft 200° 200° 3 kt METAR EGPE 030950Z 20003KT 150V240 9999 -SHRA FEW015 BKN032 08/04 Q1027

We and third parties follow your internet behavior on our website with cookies. If you continue, we assume you agree with our cookie policy.